createdAt,value
2022-08-16T00:01:33.688Z,13.40
2022-08-16T00:04:05.194Z,13.20
2022-08-16T00:06:33.856Z,12.70
2022-08-16T00:09:05.459Z,13.40
2022-08-16T00:11:34.942Z,13.30
2022-08-16T00:14:08.661Z,13.40
2022-08-16T00:17:01.375Z,13.60
2022-08-16T00:19:41.554Z,12.50
2022-08-16T00:22:13.570Z,13.10
2022-08-16T00:24:50.115Z,13.60
2022-08-16T00:27:19.973Z,12.80
2022-08-16T00:30:08.604Z,13.20
2022-08-16T00:32:39.236Z,13.30
2022-08-16T00:35:15.514Z,13.30
2022-08-16T00:37:56.700Z,13.20
2022-08-16T00:40:43.676Z,13.20
2022-08-16T00:43:24.055Z,12.90
2022-08-16T00:46:34.243Z,12.70
2022-08-16T00:49:17.243Z,12.70
2022-08-16T00:51:55.079Z,12.60
2022-08-16T00:54:29.831Z,12.40
2022-08-16T00:57:05.538Z,13.70
2022-08-16T00:59:50.731Z,13.30
2022-08-16T01:02:31.619Z,13.20
2022-08-16T01:05:10.980Z,12.60
2022-08-16T01:07:51.739Z,13.00
2022-08-16T01:10:32.416Z,12.80
2022-08-16T01:13:09.022Z,12.50
2022-08-16T01:15:45.574Z,12.90
2022-08-16T01:18:40.377Z,12.60
2022-08-16T01:21:33.495Z,12.20
2022-08-16T01:24:53.210Z,12.80
2022-08-16T01:27:18.670Z,13.50
2022-08-16T01:30:01.972Z,12.20
2022-08-16T01:32:36.222Z,13.20
2022-08-16T01:35:16.753Z,12.90
2022-08-16T01:37:52.989Z,12.40
2022-08-16T01:40:27.105Z,13.90
2022-08-16T01:42:56.276Z,13.20
2022-08-16T01:45:24.668Z,13.40
2022-08-16T01:48:19.191Z,13.20
2022-08-16T01:51:09.506Z,13.10
2022-08-16T01:53:41.330Z,14.00
2022-08-16T01:56:23.428Z,13.80
2022-08-16T01:58:59.770Z,13.70
2022-08-16T02:01:29.188Z,13.20
2022-08-16T02:04:10.266Z,13.10
2022-08-16T02:06:46.921Z,13.90
2022-08-16T02:09:19.614Z,13.80
2022-08-16T02:11:54.318Z,13.50
2022-08-16T02:14:27.335Z,14.00
2022-08-16T02:16:58.540Z,14.00
2022-08-16T02:19:58.702Z,14.10
2022-08-16T02:22:34.603Z,14.40
2022-08-16T02:25:23.408Z,13.80
2022-08-16T02:27:51.814Z,13.30
2022-08-16T02:30:36.666Z,14.50
2022-08-16T02:33:15.477Z,14.20
2022-08-16T02:35:53.691Z,14.20
2022-08-16T02:38:24.157Z,14.70
2022-08-16T02:40:54.343Z,14.40
2022-08-16T02:43:26.914Z,15.10
2022-08-16T02:45:57.399Z,14.60
2022-08-16T02:48:30.837Z,14.30
2022-08-16T02:51:06.477Z,14.00
2022-08-16T02:53:43.568Z,14.00
2022-08-16T02:56:14.962Z,13.70
2022-08-16T02:58:46.321Z,15.40
2022-08-16T03:01:25.463Z,15.30
2022-08-16T03:04:46.455Z,15.20
2022-08-16T03:06:57.497Z,15.20
2022-08-16T03:09:28.833Z,15.80
2022-08-16T03:12:02.552Z,15.90
2022-08-16T03:14:31.628Z,15.10
2022-08-16T03:17:01.858Z,15.80
2022-08-16T03:19:47.443Z,16.30
2022-08-16T03:22:28.150Z,15.80
2022-08-16T03:25:01.235Z,15.30
2022-08-16T03:27:32.279Z,15.60
2022-08-16T03:30:17.353Z,15.10
2022-08-16T03:32:51.251Z,15.40
2022-08-16T03:35:32.446Z,15.70
2022-08-16T03:38:05.053Z,15.60
2022-08-16T03:40:54.570Z,14.70
2022-08-16T03:43:24.508Z,15.60
2022-08-16T03:46:13.670Z,15.40
2022-08-16T03:49:02.204Z,14.80
2022-08-16T03:51:30.438Z,15.10
2022-08-16T03:54:01.288Z,14.80
2022-08-16T03:56:30.544Z,15.40
2022-08-16T03:58:59.661Z,14.70
2022-08-16T04:01:29.952Z,15.00
2022-08-16T04:03:58.258Z,14.90
2022-08-16T04:06:30.732Z,14.50
2022-08-16T04:08:58.706Z,15.00
2022-08-16T04:11:26.664Z,15.50
2022-08-16T04:14:08.582Z,14.90
2022-08-16T04:16:53.529Z,14.50
2022-08-16T04:19:21.627Z,14.40
2022-08-16T04:21:49.850Z,15.00
2022-08-16T04:24:17.610Z,14.20
2022-08-16T04:26:45.990Z,15.20
2022-08-16T04:29:23.297Z,14.60
2022-08-16T04:31:56.576Z,14.90
2022-08-16T04:34:31.179Z,14.90
2022-08-16T04:37:01.928Z,14.60
2022-08-16T04:39:44.905Z,14.70
2022-08-16T04:42:26.013Z,14.50
2022-08-16T04:44:58.617Z,15.00
2022-08-16T04:47:35.443Z,14.50
2022-08-16T04:50:14.459Z,14.00
2022-08-16T04:52:46.203Z,15.10
2022-08-16T04:55:20.965Z,14.70
2022-08-16T04:58:00.425Z,14.50
2022-08-16T05:00:34.514Z,15.00
2022-08-16T05:03:07.382Z,14.40
2022-08-16T05:05:44.832Z,14.00
2022-08-16T05:08:30.484Z,14.40
2022-08-16T05:11:03.480Z,14.40
2022-08-16T05:13:41.311Z,14.50
2022-08-16T05:16:32.256Z,15.00
2022-08-16T05:19:05.364Z,14.50
2022-08-16T05:21:39.931Z,14.10
2022-08-16T05:24:08.957Z,13.40
2022-08-16T05:26:40.858Z,13.40
2022-08-16T05:29:15.254Z,13.80
2022-08-16T05:31:48.027Z,12.90
2022-08-16T05:34:20.355Z,12.90
2022-08-16T05:36:53.548Z,12.80
2022-08-16T05:39:22.450Z,13.50
2022-08-16T05:41:52.389Z,13.60
2022-08-16T05:44:25.224Z,12.70
2022-08-16T05:46:56.718Z,12.10
2022-08-16T05:49:39.510Z,12.50
2022-08-16T05:52:10.679Z,11.80
2022-08-16T05:54:46.775Z,12.20
2022-08-16T05:57:18.762Z,12.40
2022-08-16T05:59:50.640Z,11.50
2022-08-16T06:02:33.966Z,12.00
2022-08-16T06:05:03.771Z,11.60
2022-08-16T06:07:32.436Z,12.20
2022-08-16T06:10:02.271Z,12.20
2022-08-16T06:12:31.431Z,11.80
2022-08-16T06:15:04.299Z,12.30
2022-08-16T06:17:42.438Z,12.20
2022-08-16T06:20:24.266Z,11.60
2022-08-16T06:23:03.254Z,11.50
2022-08-16T06:25:35.770Z,11.60
2022-08-16T06:28:17.010Z,11.50
2022-08-16T06:30:59.125Z,11.40
2022-08-16T06:33:29.957Z,11.20
2022-08-16T06:36:14.239Z,10.40
2022-08-16T06:38:55.855Z,10.50
2022-08-16T06:41:27.273Z,11.00
2022-08-16T06:43:57.566Z,10.00
2022-08-16T06:46:34.559Z,10.70
2022-08-16T06:49:05.765Z,10.30
2022-08-16T06:51:48.333Z,10.50
2022-08-16T06:54:17.747Z,10.80
2022-08-16T06:56:46.192Z,10.00
2022-08-16T06:59:14.498Z,10.00
2022-08-16T07:01:52.088Z,9.80
2022-08-16T07:04:33.261Z,9.10
2022-08-16T07:07:09.895Z,9.80
2022-08-16T07:09:39.518Z,9.70
2022-08-16T07:12:08.518Z,9.50
2022-08-16T07:14:36.576Z,10.60
2022-08-16T07:17:11.567Z,9.80
2022-08-16T07:20:03.153Z,9.90
2022-08-16T07:22:38.848Z,9.20
2022-08-16T07:25:10.506Z,9.60
2022-08-16T07:27:41.401Z,9.60
2022-08-16T07:30:38.060Z,9.60
2022-08-16T07:33:02.525Z,9.30
2022-08-16T07:35:31.110Z,9.70
2022-08-16T07:38:00.001Z,8.90
2022-08-16T07:40:49.559Z,8.30
2022-08-16T07:43:16.655Z,8.40
2022-08-16T07:45:47.222Z,8.60
2022-08-16T07:48:22.261Z,9.00
2022-08-16T07:50:56.310Z,8.80
2022-08-16T07:53:30.038Z,8.40
2022-08-16T07:56:00.726Z,8.80
2022-08-16T07:58:33.779Z,9.20
2022-08-16T08:01:10.699Z,9.20
2022-08-16T08:03:48.404Z,9.60
2022-08-16T08:06:19.806Z,8.60
2022-08-16T08:08:49.240Z,9.60
2022-08-16T08:11:18.346Z,9.40
2022-08-16T08:13:46.609Z,8.20
2022-08-16T08:16:18.343Z,8.70
2022-08-16T08:18:50.111Z,8.30
2022-08-16T08:21:19.573Z,7.60
2022-08-16T08:23:57.256Z,7.60
2022-08-16T08:26:25.456Z,7.30
2022-08-16T08:28:53.506Z,8.40
2022-08-16T08:31:29.579Z,7.70
2022-08-16T08:34:00.115Z,6.80
2022-08-16T08:36:34.244Z,7.20
2022-08-16T08:39:13.138Z,7.30
2022-08-16T08:41:43.619Z,7.90
2022-08-16T08:44:28.815Z,7.00
2022-08-16T08:47:11.081Z,7.50
2022-08-16T08:49:50.386Z,7.20
2022-08-16T08:52:34.583Z,7.10
2022-08-16T08:55:09.078Z,7.90
2022-08-16T08:57:47.839Z,7.50
2022-08-16T09:00:21.285Z,7.90
2022-08-16T09:03:07.912Z,8.20
2022-08-16T09:05:38.373Z,7.60
2022-08-16T09:08:07.409Z,7.90
2022-08-16T09:10:39.549Z,7.80
2022-08-16T09:13:10.684Z,7.80
2022-08-16T09:15:40.106Z,7.70
2022-08-16T09:18:25.263Z,7.60
2022-08-16T09:20:58.371Z,8.40
2022-08-16T09:23:36.409Z,8.10
2022-08-16T09:26:44.167Z,8.90
2022-08-16T09:29:15.121Z,8.50
2022-08-16T09:31:44.128Z,9.20
2022-08-16T09:34:18.632Z,8.90
2022-08-16T09:36:47.669Z,8.80
2022-08-16T09:39:16.653Z,8.70
2022-08-16T09:41:53.941Z,8.90
2022-08-16T09:45:11.627Z,8.70
2022-08-16T09:47:13.250Z,8.70
2022-08-16T09:49:41.383Z,8.60
2022-08-16T09:52:10.619Z,8.70
2022-08-16T09:54:44.505Z,8.70
2022-08-16T09:57:15.006Z,8.10
2022-08-16T09:59:43.297Z,8.40
2022-08-16T10:02:23.034Z,7.90
2022-08-16T10:04:58.747Z,8.30
2022-08-16T10:07:44.350Z,7.70
2022-08-16T10:10:18.697Z,7.70
2022-08-16T10:13:16.267Z,7.60
2022-08-16T10:15:55.531Z,7.90
2022-08-16T10:18:56.598Z,7.60
2022-08-16T10:21:18.395Z,7.70
2022-08-16T10:23:48.869Z,7.80
2022-08-16T10:27:18.381Z,8.40
2022-08-16T10:29:09.022Z,7.70
2022-08-16T10:31:44.227Z,7.70
2022-08-16T10:34:31.130Z,8.20
2022-08-16T10:37:02.339Z,7.50
2022-08-16T10:39:41.118Z,7.30
2022-08-16T10:42:13.275Z,7.50
2022-08-16T10:44:42.311Z,7.60
2022-08-16T10:47:11.974Z,7.50
2022-08-16T10:49:39.914Z,7.20
2022-08-16T10:52:18.393Z,7.90
2022-08-16T10:57:35.422Z,7.90
2022-08-16T11:00:21.391Z,8.20
2022-08-16T11:02:58.461Z,8.10
2022-08-16T11:05:59.097Z,8.50
2022-08-16T11:08:31.188Z,8.70
2022-08-16T11:11:11.799Z,8.40
2022-08-16T11:14:11.207Z,8.60
2022-08-16T11:19:26.245Z,9.00
2022-08-16T11:22:39.367Z,9.20
2022-08-16T11:24:45.453Z,9.10
2022-08-16T11:27:35.855Z,9.10
2022-08-16T11:30:09.106Z,9.20
2022-08-16T11:32:38.190Z,9.20
2022-08-16T11:35:14.781Z,10.00
2022-08-16T11:40:52.673Z,9.50
2022-08-16T11:43:26.439Z,10.00
2022-08-16T11:45:57.017Z,9.60
2022-08-16T11:48:38.668Z,9.90
2022-08-16T11:51:07.459Z,9.60
2022-08-16T11:53:36.070Z,10.50
2022-08-16T11:56:06.269Z,9.90
2022-08-16T11:58:34.990Z,10.00
2022-08-16T12:01:03.120Z,10.30
2022-08-16T12:03:34.428Z,10.00
2022-08-16T12:06:24.560Z,10.10
2022-08-16T12:09:01.006Z,9.70
2022-08-16T12:11:32.104Z,10.10
2022-08-16T12:14:04.516Z,9.40
2022-08-16T12:16:34.970Z,9.40
2022-08-16T12:19:10.729Z,9.60
2022-08-16T12:21:58.665Z,9.30
2022-08-16T12:24:30.090Z,9.50
2022-08-16T12:27:00.027Z,9.60
2022-08-16T12:29:30.205Z,9.50
2022-08-16T12:32:01.556Z,9.00
2022-08-16T12:34:47.923Z,8.80
2022-08-16T12:37:19.675Z,9.40
2022-08-16T12:39:51.041Z,8.90
2022-08-16T12:42:20.670Z,8.10
2022-08-16T12:44:50.199Z,7.30
2022-08-16T12:47:38.130Z,7.40
2022-08-16T12:50:10.598Z,7.10
2022-08-16T12:52:44.407Z,6.60
2022-08-16T12:55:24.231Z,6.10
2022-08-16T12:58:01.813Z,6.70
2022-08-16T13:00:33.447Z,6.50
2022-08-16T13:03:03.655Z,6.00
2022-08-16T13:08:00.815Z,6.00
2022-08-16T13:10:37.646Z,5.70
2022-08-16T13:13:09.335Z,5.70
2022-08-16T13:15:55.971Z,5.70
2022-08-16T13:18:34.755Z,6.40
2022-08-16T13:21:07.058Z,6.40
2022-08-16T13:23:36.951Z,6.20
2022-08-16T13:26:17.818Z,6.10
2022-08-16T13:28:47.864Z,6.30
2022-08-16T13:31:17.032Z,6.00
2022-08-16T13:33:45.504Z,5.90
2022-08-16T13:36:32.196Z,6.60
2022-08-16T13:39:03.885Z,6.40
2022-08-16T13:41:32.650Z,6.30
2022-08-16T13:44:00.991Z,6.60
2022-08-16T13:46:32.605Z,6.30
2022-08-16T13:49:00.924Z,6.70
2022-08-16T13:51:30.614Z,6.00
2022-08-16T13:54:04.483Z,6.50
2022-08-16T13:56:37.432Z,6.00
2022-08-16T13:59:14.347Z,7.00
2022-08-16T14:01:54.662Z,6.40
2022-08-16T14:04:29.256Z,6.20
2022-08-16T14:06:59.205Z,6.30
2022-08-16T14:09:29.413Z,6.50
2022-08-16T14:12:00.884Z,6.60
2022-08-16T14:14:30.292Z,6.00
2022-08-16T14:17:05.006Z,6.40
2022-08-16T14:19:45.017Z,6.50
2022-08-16T14:22:30.439Z,6.60
2022-08-16T14:25:00.735Z,6.40
2022-08-16T14:27:31.176Z,7.30
2022-08-16T14:30:01.398Z,7.00
2022-08-16T14:32:33.442Z,6.80
2022-08-16T14:35:07.446Z,7.30
2022-08-16T14:37:36.486Z,7.20
2022-08-16T14:40:07.584Z,7.10
2022-08-16T14:42:36.749Z,7.80
2022-08-16T14:45:09.154Z,6.90
2022-08-16T14:47:38.530Z,7.80
2022-08-16T14:50:10.164Z,6.40
2022-08-16T14:52:56.399Z,6.70
2022-08-16T14:55:29.239Z,6.60
2022-08-16T14:57:58.469Z,6.90
2022-08-16T15:00:36.451Z,6.40
2022-08-16T15:03:09.751Z,6.70
2022-08-16T15:05:40.740Z,6.90
2022-08-16T15:08:10.451Z,6.90
2022-08-16T15:10:42.737Z,6.30
2022-08-16T15:13:15.098Z,6.80
2022-08-16T15:15:44.132Z,7.00
2022-08-16T15:18:23.433Z,6.90
2022-08-16T15:20:57.769Z,6.90
2022-08-16T15:23:28.625Z,6.60
2022-08-16T15:26:02.923Z,7.20
2022-08-16T15:28:37.314Z,7.20
2022-08-16T15:31:10.005Z,6.80
2022-08-16T15:33:51.090Z,6.90
2022-08-16T15:36:27.201Z,7.10
2022-08-16T15:39:05.781Z,7.20
2022-08-16T15:41:46.860Z,7.00
2022-08-16T15:44:22.637Z,6.70
2022-08-16T15:46:54.593Z,6.90
2022-08-16T15:49:38.676Z,7.40
2022-08-16T15:52:20.471Z,6.80
2022-08-16T15:54:53.001Z,6.90
2022-08-16T15:57:28.536Z,6.70
2022-08-16T16:00:15.406Z,7.50
2022-08-16T16:02:45.478Z,7.00
2022-08-16T16:05:14.631Z,7.00
2022-08-16T16:07:55.911Z,7.30
2022-08-16T16:10:29.379Z,7.70
2022-08-16T16:13:00.954Z,6.80
2022-08-16T16:15:33.317Z,6.40
2022-08-16T16:18:09.533Z,7.20
2022-08-16T16:20:47.357Z,6.40
2022-08-16T16:23:23.502Z,6.90
2022-08-16T16:25:55.020Z,5.90
2022-08-16T16:29:05.479Z,5.90
2022-08-16T16:31:18.638Z,6.20
2022-08-16T16:33:51.504Z,6.30
2022-08-16T16:36:24.313Z,6.10
2022-08-16T16:38:56.630Z,6.00
2022-08-16T16:41:28.396Z,6.40
2022-08-16T16:44:01.297Z,6.50
2022-08-16T16:46:43.039Z,6.80
2022-08-16T16:49:13.963Z,6.60
2022-08-16T16:51:44.472Z,6.30
2022-08-16T16:54:13.379Z,6.50
2022-08-16T16:56:59.594Z,6.30
2022-08-16T16:59:28.433Z,6.90
2022-08-16T17:02:38.529Z,7.00
2022-08-16T17:04:48.550Z,7.40
2022-08-16T17:07:18.049Z,7.00
2022-08-16T17:09:54.059Z,7.70
2022-08-16T17:12:24.891Z,7.50
2022-08-16T17:14:55.309Z,7.10
2022-08-16T17:17:24.382Z,7.40
2022-08-16T17:19:52.553Z,7.60
2022-08-16T17:22:23.364Z,7.40
2022-08-16T17:24:53.564Z,7.00
2022-08-16T17:27:33.676Z,8.30
2022-08-16T17:30:20.181Z,7.60
2022-08-16T17:33:05.670Z,7.40
2022-08-16T17:35:37.085Z,8.00
2022-08-16T17:38:09.172Z,7.80
2022-08-16T17:40:47.771Z,7.70
2022-08-16T17:43:36.057Z,8.50
2022-08-16T17:46:06.438Z,8.60
2022-08-16T17:48:54.894Z,9.10
2022-08-16T17:51:28.875Z,8.10
2022-08-16T17:53:57.478Z,8.20
2022-08-16T17:56:25.530Z,8.40
2022-08-16T17:58:53.424Z,9.00
2022-08-16T18:01:26.777Z,8.20
2022-08-16T18:04:07.804Z,7.80
2022-08-16T18:06:41.157Z,8.40
2022-08-16T18:09:10.337Z,8.60
2022-08-16T18:11:40.699Z,8.60
2022-08-16T18:14:10.558Z,7.70
2022-08-16T18:16:41.004Z,8.20
2022-08-16T18:19:11.615Z,8.40
2022-08-16T18:21:59.878Z,8.70
2022-08-16T18:24:29.596Z,8.60
2022-08-16T18:27:25.632Z,8.70
2022-08-16T18:29:47.415Z,9.20
2022-08-16T18:32:22.003Z,8.60
2022-08-16T18:34:55.362Z,9.40
2022-08-16T18:37:24.750Z,9.90
2022-08-16T18:39:53.064Z,9.80
2022-08-16T18:42:21.316Z,9.20
2022-08-16T18:44:49.372Z,10.00
2022-08-16T18:47:17.359Z,10.00
2022-08-16T18:49:45.716Z,10.60
2022-08-16T18:52:25.057Z,9.50
2022-08-16T18:55:01.794Z,10.10
2022-08-16T18:57:31.538Z,9.80
2022-08-16T18:59:59.606Z,10.10
2022-08-16T19:02:56.806Z,9.40
2022-08-16T19:05:24.515Z,10.00
2022-08-16T19:07:52.596Z,10.50
2022-08-16T19:10:21.080Z,11.90
2022-08-16T19:12:49.298Z,9.90
2022-08-16T19:15:21.911Z,10.50
2022-08-16T19:17:50.201Z,10.50
2022-08-16T19:20:22.775Z,11.00
2022-08-16T19:23:05.233Z,10.70
2022-08-16T19:25:48.728Z,10.10
2022-08-16T19:28:51.734Z,9.70
2022-08-16T19:31:25.222Z,10.70
2022-08-16T19:33:57.020Z,11.00
2022-08-16T19:36:37.130Z,9.80
2022-08-16T19:39:11.737Z,11.30
2022-08-16T19:41:53.784Z,10.50
2022-08-16T19:44:23.662Z,10.00
2022-08-16T19:46:52.031Z,11.10
2022-08-16T19:49:20.207Z,11.10
2022-08-16T19:51:48.939Z,11.30
2022-08-16T19:54:18.099Z,10.60
2022-08-16T19:56:46.462Z,11.30
2022-08-16T19:59:20.529Z,11.40
2022-08-16T20:01:52.373Z,11.70
2022-08-16T20:04:22.872Z,11.70
2022-08-16T20:06:52.453Z,11.50
2022-08-16T20:09:23.918Z,11.20
2022-08-16T20:11:53.940Z,11.70
2022-08-16T20:14:25.338Z,10.60
2022-08-16T20:17:00.886Z,11.30
2022-08-16T20:19:36.040Z,11.00
2022-08-16T20:22:30.020Z,11.20
2022-08-16T20:25:07.509Z,11.10
2022-08-16T20:27:40.526Z,11.20
2022-08-16T20:30:11.294Z,12.30
2022-08-16T20:32:39.327Z,12.00
2022-08-16T20:35:10.679Z,11.50
2022-08-16T20:37:39.874Z,11.90
2022-08-16T20:40:28.441Z,11.70
2022-08-16T20:43:06.708Z,12.20
2022-08-16T20:45:36.541Z,12.30
2022-08-16T20:48:11.710Z,12.10
2022-08-16T20:50:39.902Z,12.40
2022-08-16T20:53:09.154Z,13.00
2022-08-16T20:55:40.606Z,13.20
2022-08-16T20:58:08.848Z,12.30
2022-08-16T21:00:37.359Z,13.40
2022-08-16T21:03:10.282Z,12.80
2022-08-16T21:05:38.717Z,13.30
2022-08-16T21:08:28.687Z,14.40
2022-08-16T21:10:56.826Z,13.40
2022-08-16T21:13:26.101Z,15.20
2022-08-16T21:15:54.452Z,14.80
2022-08-16T21:18:22.526Z,13.70
2022-08-16T21:20:50.796Z,14.20
2022-08-16T21:23:18.969Z,13.50
2022-08-16T21:25:54.819Z,14.20
2022-08-16T21:28:38.990Z,13.80
2022-08-16T21:31:13.430Z,13.30
2022-08-16T21:33:43.436Z,13.20
2022-08-16T21:36:12.721Z,14.00
2022-08-16T21:38:40.996Z,14.30
2022-08-16T21:41:12.077Z,13.60
2022-08-16T21:43:40.621Z,14.20
2022-08-16T21:46:09.202Z,13.60
2022-08-16T21:48:40.695Z,13.80
2022-08-16T21:51:13.264Z,14.80
2022-08-16T21:53:43.286Z,15.30
2022-08-16T21:56:12.715Z,14.40
2022-08-16T21:58:52.791Z,15.20
2022-08-16T22:01:23.355Z,15.80
2022-08-16T22:04:35.241Z,15.00
2022-08-16T22:06:42.507Z,15.30
2022-08-16T22:09:15.509Z,15.30
2022-08-16T22:11:44.493Z,15.50
2022-08-16T22:14:12.967Z,15.30
2022-08-16T22:16:42.217Z,15.60
2022-08-16T22:19:12.363Z,15.60
2022-08-16T22:21:40.868Z,16.10
2022-08-16T22:24:10.165Z,15.30
2022-08-16T22:26:43.061Z,15.60
2022-08-16T22:29:15.238Z,14.90
2022-08-16T22:31:44.618Z,14.70
2022-08-16T22:34:14.030Z,15.70
2022-08-16T22:36:43.012Z,15.80
2022-08-16T22:39:13.612Z,15.90
2022-08-16T22:41:45.851Z,14.60
2022-08-16T22:44:14.997Z,15.80
2022-08-16T22:46:44.659Z,15.10
2022-08-16T22:49:13.367Z,16.00
2022-08-16T22:51:42.535Z,15.70
2022-08-16T22:54:43.845Z,15.80
2022-08-16T22:56:59.461Z,15.90
2022-08-16T22:59:30.559Z,16.30
2022-08-16T23:02:02.589Z,16.50
2022-08-16T23:04:30.913Z,17.40
2022-08-16T23:06:59.085Z,17.10
2022-08-16T23:09:27.296Z,16.40
2022-08-16T23:11:55.542Z,16.50
2022-08-16T23:14:23.491Z,17.60
2022-08-16T23:16:51.461Z,17.40
2022-08-16T23:19:19.639Z,17.30
2022-08-16T23:21:49.150Z,17.90
2022-08-16T23:24:20.757Z,17.00
2022-08-16T23:26:49.454Z,16.70
2022-08-16T23:29:23.796Z,16.40
2022-08-16T23:31:56.568Z,16.90
2022-08-16T23:34:27.184Z,16.30
2022-08-16T23:36:56.464Z,16.70
2022-08-16T23:39:24.870Z,16.60
2022-08-16T23:41:53.163Z,16.70
2022-08-16T23:44:56.047Z,16.70
2022-08-16T23:47:10.100Z,17.40
2022-08-16T23:49:56.291Z,16.30
2022-08-16T23:52:53.248Z,16.20
2022-08-16T23:55:16.975Z,16.80
2022-08-16T23:57:46.790Z,16.50
